sensor_id;sensor_type;location;lat;lon;timestamp;pressure;altitude;pressure_sealevel;temperature;humidity
50268;BME280;36153;50.960;6.220;2022-08-26T00:02:48;100437.13;;;25.53;57.09
50268;BME280;36153;50.960;6.220;2022-08-26T00:05:49;100439.06;;;25.49;56.72
50268;BME280;36153;50.960;6.220;2022-08-26T00:08:50;100442.06;;;25.43;57.60
50268;BME280;36153;50.960;6.220;2022-08-26T00:11:52;100441.69;;;25.33;57.82
50268;BME280;36153;50.960;6.220;2022-08-26T00:14:52;100444.94;;;25.38;57.74
50268;BME280;36153;50.960;6.220;2022-08-26T00:17:53;100443.25;;;25.37;57.62
50268;BME280;36153;50.960;6.220;2022-08-26T00:20:53;100447.56;;;25.40;58.01
50268;BME280;36153;50.960;6.220;2022-08-26T00:23:54;100451.38;;;25.52;57.12
50268;BME280;36153;50.960;6.220;2022-08-26T00:26:54;100459.84;;;25.60;57.51
50268;BME280;36153;50.960;6.220;2022-08-26T00:29:54;100457.81;;;25.65;57.06
50268;BME280;36153;50.960;6.220;2022-08-26T00:32:55;100459.13;;;25.56;57.44
50268;BME280;36153;50.960;6.220;2022-08-26T00:35:56;100454.28;;;25.47;56.97
50268;BME280;36153;50.960;6.220;2022-08-26T00:38:57;100459.91;;;25.41;57.76
50268;BME280;36153;50.960;6.220;2022-08-26T00:41:58;100452.56;;;25.46;57.92
50268;BME280;36153;50.960;6.220;2022-08-26T00:44:59;100460.81;;;25.42;58.34
50268;BME280;36153;50.960;6.220;2022-08-26T00:48:02;100459.25;;;25.37;58.09
50268;BME280;36153;50.960;6.220;2022-08-26T00:51:15;100455.88;;;25.51;57.56
50268;BME280;36153;50.960;6.220;2022-08-26T00:54:16;100462.84;;;25.36;58.43
50268;BME280;36153;50.960;6.220;2022-08-26T00:57:19;100467.31;;;25.36;56.14
50268;BME280;36153;50.960;6.220;2022-08-26T01:00:24;100462.03;;;25.34;57.04
50268;BME280;36153;50.960;6.220;2022-08-26T01:03:27;100466.28;;;25.38;57.99
50268;BME280;36153;50.960;6.220;2022-08-26T01:06:27;100459.78;;;25.44;55.97
50268;BME280;36153;50.960;6.220;2022-08-26T01:09:29;100471.78;;;25.53;58.05
50268;BME280;36153;50.960;6.220;2022-08-26T01:12:33;100466.06;;;25.43;57.79
50268;BME280;36153;50.960;6.220;2022-08-26T01:15:39;100472.63;;;25.36;58.13
50268;BME280;36153;50.960;6.220;2022-08-26T01:18:42;100476.50;;;25.29;58.76
50268;BME280;36153;50.960;6.220;2022-08-26T01:21:48;100470.66;;;25.39;57.83
50268;BME280;36153;50.960;6.220;2022-08-26T01:24:49;100476.00;;;25.39;58.00
50268;BME280;36153;50.960;6.220;2022-08-26T01:27:51;100481.69;;;25.32;58.94
50268;BME280;36153;50.960;6.220;2022-08-26T01:30:52;100479.00;;;25.14;58.74
50268;BME280;36153;50.960;6.220;2022-08-26T01:37:13;100478.63;;;25.22;58.63
50268;BME280;36153;50.960;6.220;2022-08-26T01:40:19;100480.00;;;25.12;59.45
50268;BME280;36153;50.960;6.220;2022-08-26T01:43:22;100470.94;;;25.16;59.70
50268;BME280;36153;50.960;6.220;2022-08-26T01:46:25;100471.72;;;25.18;59.16
50268;BME280;36153;50.960;6.220;2022-08-26T01:49:27;100477.84;;;25.20;59.28
50268;BME280;36153;50.960;6.220;2022-08-26T01:52:29;100480.13;;;25.28;59.08
50268;BME280;36153;50.960;6.220;2022-08-26T01:55:33;100479.16;;;25.29;58.74
50268;BME280;36153;50.960;6.220;2022-08-26T01:58:40;100484.00;;;25.20;58.98
50268;BME280;36153;50.960;6.220;2022-08-26T02:01:42;100487.22;;;25.10;59.61
50268;BME280;36153;50.960;6.220;2022-08-26T02:04:51;100485.97;;;25.17;59.58
50268;BME280;36153;50.960;6.220;2022-08-26T02:07:53;100491.47;;;25.14;59.49
50268;BME280;36153;50.960;6.220;2022-08-26T02:10:54;100486.22;;;25.12;59.44
50268;BME280;36153;50.960;6.220;2022-08-26T02:13:59;100495.31;;;25.08;59.56
50268;BME280;36153;50.960;6.220;2022-08-26T02:17:02;100493.81;;;25.02;60.25
50268;BME280;36153;50.960;6.220;2022-08-26T02:20:04;100500.69;;;25.07;59.75
50268;BME280;36153;50.960;6.220;2022-08-26T02:23:05;100501.63;;;25.05;59.95
50268;BME280;36153;50.960;6.220;2022-08-26T02:26:10;100504.50;;;25.01;59.62
50268;BME280;36153;50.960;6.220;2022-08-26T02:29:34;100500.22;;;24.98;59.25
50268;BME280;36153;50.960;6.220;2022-08-26T02:32:35;100508.22;;;25.16;59.46
50268;BME280;36153;50.960;6.220;2022-08-26T02:35:36;100501.63;;;25.05;59.45
50268;BME280;36153;50.960;6.220;2022-08-26T02:38:37;100501.91;;;24.99;59.57
50268;BME280;36153;50.960;6.220;2022-08-26T02:41:37;100504.31;;;25.05;59.63
50268;BME280;36153;50.960;6.220;2022-08-26T02:44:38;100507.53;;;25.12;59.49
50268;BME280;36153;50.960;6.220;2022-08-26T02:47:38;100504.31;;;25.05;58.94
50268;BME280;36153;50.960;6.220;2022-08-26T02:50:39;100504.25;;;24.88;59.09
50268;BME280;36153;50.960;6.220;2022-08-26T02:53:39;100508.63;;;24.89;59.97
50268;BME280;36153;50.960;6.220;2022-08-26T02:56:40;100497.41;;;25.01;59.12
50268;BME280;36153;50.960;6.220;2022-08-26T02:59:40;100491.09;;;24.85;58.14
50268;BME280;36153;50.960;6.220;2022-08-26T03:02:41;100499.84;;;24.87;59.58
50268;BME280;36153;50.960;6.220;2022-08-26T03:05:41;100498.66;;;24.75;59.51
50268;BME280;36153;50.960;6.220;2022-08-26T03:08:42;100494.59;;;24.85;58.76
50268;BME280;36153;50.960;6.220;2022-08-26T03:11:43;100499.41;;;24.96;59.42
50268;BME280;36153;50.960;6.220;2022-08-26T03:14:46;100494.50;;;25.06;59.11
50268;BME280;36153;50.960;6.220;2022-08-26T03:17:47;100491.84;;;25.06;58.95
50268;BME280;36153;50.960;6.220;2022-08-26T03:20:48;100496.22;;;25.07;58.93
50268;BME280;36153;50.960;6.220;2022-08-26T03:23:48;100492.28;;;24.97;59.41
50268;BME280;36153;50.960;6.220;2022-08-26T03:26:48;100494.41;;;25.08;59.20
50268;BME280;36153;50.960;6.220;2022-08-26T03:29:49;100496.34;;;24.86;59.82
50268;BME280;36153;50.960;6.220;2022-08-26T03:33:08;100507.28;;;24.80;59.50
50268;BME280;36153;50.960;6.220;2022-08-26T03:36:10;100500.66;;;24.89;59.92
50268;BME280;36153;50.960;6.220;2022-08-26T03:39:11;100487.56;;;24.84;58.78
50268;BME280;36153;50.960;6.220;2022-08-26T03:42:12;100499.31;;;24.80;59.07
50268;BME280;36153;50.960;6.220;2022-08-26T03:45:13;100500.09;;;24.82;59.14
50268;BME280;36153;50.960;6.220;2022-08-26T03:48:14;100498.28;;;24.83;59.75
50268;BME280;36153;50.960;6.220;2022-08-26T03:51:17;100498.56;;;24.77;59.83
50268;BME280;36153;50.960;6.220;2022-08-26T03:54:18;100503.81;;;24.78;59.28
50268;BME280;36153;50.960;6.220;2022-08-26T03:57:18;100499.38;;;24.79;59.71
50268;BME280;36153;50.960;6.220;2022-08-26T04:00:19;100504.41;;;24.85;59.36
50268;BME280;36153;50.960;6.220;2022-08-26T04:03:19;100499.88;;;24.68;59.45
50268;BME280;36153;50.960;6.220;2022-08-26T04:06:41;100505.06;;;24.71;59.56
50268;BME280;36153;50.960;6.220;2022-08-26T04:09:42;100503.25;;;24.71;59.99
50268;BME280;36153;50.960;6.220;2022-08-26T04:12:42;100499.97;;;24.66;59.54
50268;BME280;36153;50.960;6.220;2022-08-26T04:15:43;100509.72;;;24.66;58.35
50268;BME280;36153;50.960;6.220;2022-08-26T04:18:43;100504.72;;;24.79;58.60
50268;BME280;36153;50.960;6.220;2022-08-26T04:21:45;100507.06;;;24.66;58.88
50268;BME280;36153;50.960;6.220;2022-08-26T04:24:45;100507.16;;;24.64;58.12
50268;BME280;36153;50.960;6.220;2022-08-26T04:27:46;100504.22;;;24.70;58.72
50268;BME280;36153;50.960;6.220;2022-08-26T04:30:46;100503.41;;;24.68;58.48
50268;BME280;36153;50.960;6.220;2022-08-26T04:33:47;100500.78;;;24.48;58.84
50268;BME280;36153;50.960;6.220;2022-08-26T04:36:49;100500.94;;;24.45;58.92
50268;BME280;36153;50.960;6.220;2022-08-26T04:39:51;100502.22;;;24.55;58.91
50268;BME280;36153;50.960;6.220;2022-08-26T04:42:52;100502.38;;;24.52;58.95
50268;BME280;36153;50.960;6.220;2022-08-26T04:45:52;100505.25;;;24.47;58.76
50268;BME280;36153;50.960;6.220;2022-08-26T04:48:53;100511.56;;;24.45;58.67
50268;BME280;36153;50.960;6.220;2022-08-26T04:51:53;100510.72;;;24.63;58.31
50268;BME280;36153;50.960;6.220;2022-08-26T04:54:54;100508.19;;;24.60;58.15
50268;BME280;36153;50.960;6.220;2022-08-26T04:57:54;100510.38;;;24.71;58.14
50268;BME280;36153;50.960;6.220;2022-08-26T05:00:55;100512.19;;;24.70;58.05
50268;BME280;36153;50.960;6.220;2022-08-26T05:03:56;100511.69;;;24.62;57.97
50268;BME280;36153;50.960;6.220;2022-08-26T05:06:57;100515.31;;;24.60;58.42
50268;BME280;36153;50.960;6.220;2022-08-26T05:09:57;100514.66;;;24.54;58.51
50268;BME280;36153;50.960;6.220;2022-08-26T05:12:58;100509.13;;;24.59;57.98
50268;BME280;36153;50.960;6.220;2022-08-26T05:16:04;100505.78;;;24.75;58.00
50268;BME280;36153;50.960;6.220;2022-08-26T05:19:06;100513.91;;;24.71;57.44
50268;BME280;36153;50.960;6.220;2022-08-26T05:22:06;100504.31;;;24.86;58.00
50268;BME280;36153;50.960;6.220;2022-08-26T05:25:07;100513.81;;;24.92;57.61
50268;BME280;36153;50.960;6.220;2022-08-26T05:28:09;100509.28;;;24.94;57.72
50268;BME280;36153;50.960;6.220;2022-08-26T05:31:18;100516.78;;;24.86;57.81
50268;BME280;36153;50.960;6.220;2022-08-26T05:34:19;100516.47;;;24.92;57.78
50268;BME280;36153;50.960;6.220;2022-08-26T05:37:22;100512.22;;;24.88;57.53
50268;BME280;36153;50.960;6.220;2022-08-26T05:40:23;100524.22;;;24.97;56.45
50268;BME280;36153;50.960;6.220;2022-08-26T05:43:23;100520.53;;;24.82;56.80
50268;BME280;36153;50.960;6.220;2022-08-26T05:46:24;100517.41;;;24.91;57.87
50268;BME280;36153;50.960;6.220;2022-08-26T05:49:28;100524.31;;;24.95;57.04
50268;BME280;36153;50.960;6.220;2022-08-26T05:52:28;100522.81;;;24.90;57.46
50268;BME280;36153;50.960;6.220;2022-08-26T05:55:29;100526.47;;;24.87;57.99
50268;BME280;36153;50.960;6.220;2022-08-26T05:58:30;100529.28;;;24.84;58.38
50268;BME280;36153;50.960;6.220;2022-08-26T06:01:30;100530.50;;;24.96;58.24
50268;BME280;36153;50.960;6.220;2022-08-26T06:04:32;100537.03;;;25.08;57.87
50268;BME280;36153;50.960;6.220;2022-08-26T06:07:32;100532.22;;;24.97;57.69
50268;BME280;36153;50.960;6.220;2022-08-26T06:10:53;100535.91;;;24.94;58.21
50268;BME280;36153;50.960;6.220;2022-08-26T06:13:55;100544.34;;;24.85;58.73
50268;BME280;36153;50.960;6.220;2022-08-26T06:16:57;100542.16;;;24.93;58.35
50268;BME280;36153;50.960;6.220;2022-08-26T06:19:57;100544.69;;;24.96;58.44
50268;BME280;36153;50.960;6.220;2022-08-26T06:22:58;100538.75;;;25.09;57.53
50268;BME280;36153;50.960;6.220;2022-08-26T06:26:16;100542.59;;;25.03;57.99
50268;BME280;36153;50.960;6.220;2022-08-26T06:29:19;100544.03;;;24.91;58.14
50268;BME280;36153;50.960;6.220;2022-08-26T06:32:19;100551.94;;;24.93;58.44
50268;BME280;36153;50.960;6.220;2022-08-26T06:35:19;100555.34;;;24.96;58.32
50268;BME280;36153;50.960;6.220;2022-08-26T06:38:20;100551.91;;;24.94;58.41
50268;BME280;36153;50.960;6.220;2022-08-26T06:41:21;100552.25;;;24.86;58.53
50268;BME280;36153;50.960;6.220;2022-08-26T06:44:22;100557.34;;;24.91;58.93
50268;BME280;36153;50.960;6.220;2022-08-26T06:47:22;100559.22;;;24.89;58.88
50268;BME280;36153;50.960;6.220;2022-08-26T06:50:22;100554.91;;;24.86;58.73
50268;BME280;36153;50.960;6.220;2022-08-26T06:53:23;100554.06;;;24.86;58.74
50268;BME280;36153;50.960;6.220;2022-08-26T06:56:26;100557.06;;;24.97;57.84
50268;BME280;36153;50.960;6.220;2022-08-26T06:59:27;100559.25;;;25.07;57.80
50268;BME280;36153;50.960;6.220;2022-08-26T07:02:27;100555.72;;;24.88;59.06
50268;BME280;36153;50.960;6.220;2022-08-26T07:05:27;100553.91;;;24.89;58.76
50268;BME280;36153;50.960;6.220;2022-08-26T07:08:28;100554.59;;;24.93;58.24
50268;BME280;36153;50.960;6.220;2022-08-26T07:11:28;100556.41;;;24.92;58.12
50268;BME280;36153;50.960;6.220;2022-08-26T07:14:29;100561.38;;;24.81;58.11
50268;BME280;36153;50.960;6.220;2022-08-26T07:17:30;100554.41;;;24.97;57.84
50268;BME280;36153;50.960;6.220;2022-08-26T07:20:31;100568.72;;;25.14;58.09
50268;BME280;36153;50.960;6.220;2022-08-26T07:23:32;100561.91;;;25.26;57.51
50268;BME280;36153;50.960;6.220;2022-08-26T07:26:33;100560.81;;;25.30;57.70
50268;BME280;36153;50.960;6.220;2022-08-26T07:29:35;100567.97;;;25.29;57.48
50268;BME280;36153;50.960;6.220;2022-08-26T07:32:36;100566.16;;;25.30;57.00
50268;BME280;36153;50.960;6.220;2022-08-26T07:35:36;100569.34;;;25.38;57.08
50268;BME280;36153;50.960;6.220;2022-08-26T07:38:38;100571.47;;;25.49;57.21
50268;BME280;36153;50.960;6.220;2022-08-26T07:41:39;100572.41;;;25.48;56.69
50268;BME280;36153;50.960;6.220;2022-08-26T07:44:39;100577.56;;;25.51;56.63
50268;BME280;36153;50.960;6.220;2022-08-26T07:47:41;100582.28;;;25.27;56.99
50268;BME280;36153;50.960;6.220;2022-08-26T07:50:41;100590.53;;;25.22;56.89
50268;BME280;36153;50.960;6.220;2022-08-26T07:53:42;100586.25;;;25.37;57.04
50268;BME280;36153;50.960;6.220;2022-08-26T07:56:43;100581.00;;;25.35;56.92
50268;BME280;36153;50.960;6.220;2022-08-26T07:59:44;100574.59;;;25.39;56.73
50268;BME280;36153;50.960;6.220;2022-08-26T08:02:44;100581.22;;;25.31;57.37
50268;BME280;36153;50.960;6.220;2022-08-26T08:05:44;100577.25;;;25.39;56.84
50268;BME280;36153;50.960;6.220;2022-08-26T08:08:45;100583.06;;;25.48;57.08
50268;BME280;36153;50.960;6.220;2022-08-26T08:11:45;100583.66;;;25.35;56.42
50268;BME280;36153;50.960;6.220;2022-08-26T08:14:46;100572.56;;;25.62;56.30
50268;BME280;36153;50.960;6.220;2022-08-26T08:17:47;100579.88;;;25.76;55.47
50268;BME280;36153;50.960;6.220;2022-08-26T08:20:48;100579.09;;;25.92;55.16
50268;BME280;36153;50.960;6.220;2022-08-26T08:23:49;100584.59;;;25.71;55.64
50268;BME280;36153;50.960;6.220;2022-08-26T08:26:50;100577.44;;;25.54;55.63
50268;BME280;36153;50.960;6.220;2022-08-26T08:29:52;100589.53;;;25.61;56.22
50268;BME280;36153;50.960;6.220;2022-08-26T08:32:55;100589.19;;;25.67;55.72
50268;BME280;36153;50.960;6.220;2022-08-26T08:35:57;100589.75;;;25.74;55.65
50268;BME280;36153;50.960;6.220;2022-08-26T08:38:58;100594.44;;;25.69;55.48
50268;BME280;36153;50.960;6.220;2022-08-26T08:45:11;100585.94;;;25.97;54.71
50268;BME280;36153;50.960;6.220;2022-08-26T08:48:29;100586.38;;;26.23;54.09
50268;BME280;36153;50.960;6.220;2022-08-26T08:54:38;100586.56;;;25.85;54.79
50268;BME280;36153;50.960;6.220;2022-08-26T08:57:47;100596.13;;;25.89;54.91
50268;BME280;36153;50.960;6.220;2022-08-26T09:01:01;100593.28;;;25.92;54.80
50268;BME280;36153;50.960;6.220;2022-08-26T09:04:32;100591.75;;;26.05;54.73
50268;BME280;36153;50.960;6.220;2022-08-26T09:07:40;100598.19;;;26.01;54.61
50268;BME280;36153;50.960;6.220;2022-08-26T09:10:46;100602.88;;;26.14;54.53
50268;BME280;36153;50.960;6.220;2022-08-26T09:13:52;100604.72;;;26.47;53.54
50268;BME280;36153;50.960;6.220;2022-08-26T09:17:05;100600.16;;;26.49;53.03
50268;BME280;36153;50.960;6.220;2022-08-26T09:20:18;100605.81;;;26.43;53.28
50268;BME280;36153;50.960;6.220;2022-08-26T09:23:23;100608.84;;;26.19;53.51
50268;BME280;36153;50.960;6.220;2022-08-26T09:26:28;100612.06;;;26.08;54.24
50268;BME280;36153;50.960;6.220;2022-08-26T09:29:32;100608.19;;;26.14;53.78
50268;BME280;36153;50.960;6.220;2022-08-26T09:32:40;100612.91;;;26.26;53.33
50268;BME280;36153;50.960;6.220;2022-08-26T09:35:42;100617.94;;;26.32;53.78
50268;BME280;36153;50.960;6.220;2022-08-26T09:38:46;100614.56;;;26.62;53.09
50268;BME280;36153;50.960;6.220;2022-08-26T09:42:01;100617.13;;;26.48;52.63
50268;BME280;36153;50.960;6.220;2022-08-26T09:45:05;100627.97;;;26.45;53.18
50268;BME280;36153;50.960;6.220;2022-08-26T09:48:09;100626.97;;;26.30;53.35
50268;BME280;36153;50.960;6.220;2022-08-26T09:54:24;100618.19;;;26.61;52.92
50268;BME280;36153;50.960;6.220;2022-08-26T09:57:28;100619.81;;;26.64;52.57
50268;BME280;36153;50.960;6.220;2022-08-26T10:00:41;100619.72;;;26.65;52.68
50268;BME280;36153;50.960;6.220;2022-08-26T10:03:41;100627.72;;;26.32;52.70
50268;BME280;36153;50.960;6.220;2022-08-26T10:07:03;100621.50;;;26.15;53.65
50268;BME280;36153;50.960;6.220;2022-08-26T10:10:06;100616.19;;;26.31;52.94
50268;BME280;36153;50.960;6.220;2022-08-26T10:13:12;100612.59;;;26.32;53.72
50268;BME280;36153;50.960;6.220;2022-08-26T10:16:19;100606.28;;;26.51;52.30
50268;BME280;36153;50.960;6.220;2022-08-26T10:19:25;100608.56;;;26.41;52.99
50268;BME280;36153;50.960;6.220;2022-08-26T10:22:45;100609.38;;;26.77;52.00
50268;BME280;36153;50.960;6.220;2022-08-26T10:25:57;100606.53;;;26.96;51.16
50268;BME280;36153;50.960;6.220;2022-08-26T10:29:06;100608.28;;;26.81;51.16
50268;BME280;36153;50.960;6.220;2022-08-26T10:32:43;100602.50;;;27.04;50.66
50268;BME280;36153;50.960;6.220;2022-08-26T10:36:09;100601.03;;;27.15;50.16
50268;BME280;36153;50.960;6.220;2022-08-26T10:39:36;100604.13;;;27.07;50.41
50268;BME280;36153;50.960;6.220;2022-08-26T10:42:42;100605.06;;;27.22;49.81
50268;BME280;36153;50.960;6.220;2022-08-26T10:45:53;100599.41;;;26.63;51.14
50268;BME280;36153;50.960;6.220;2022-08-26T10:48:57;100602.94;;;26.63;51.97
50268;BME280;36153;50.960;6.220;2022-08-26T10:52:06;100603.41;;;26.38;52.38
50268;BME280;36153;50.960;6.220;2022-08-26T10:55:19;100606.81;;;26.06;53.10
50268;BME280;36153;50.960;6.220;2022-08-26T11:04:47;100607.44;;;26.29;52.63
50268;BME280;36153;50.960;6.220;2022-08-26T11:07:51;100598.31;;;26.33;52.54
50268;BME280;36153;50.960;6.220;2022-08-26T11:10:57;100601.66;;;26.54;51.94
50268;BME280;36153;50.960;6.220;2022-08-26T11:13:59;100600.25;;;26.47;51.98
50268;BME280;36153;50.960;6.220;2022-08-26T11:17:00;100598.72;;;26.59;51.76
50268;BME280;36153;50.960;6.220;2022-08-26T11:20:01;100593.72;;;26.69;51.35
50268;BME280;36153;50.960;6.220;2022-08-26T11:26:34;100593.09;;;26.97;50.71
50268;BME280;36153;50.960;6.220;2022-08-26T11:36:54;100602.69;;;26.34;52.31
50268;BME280;36153;50.960;6.220;2022-08-26T11:39:55;100600.56;;;26.41;51.85
50268;BME280;36153;50.960;6.220;2022-08-26T11:43:03;100602.00;;;26.64;51.50
50268;BME280;36153;50.960;6.220;2022-08-26T11:46:11;100594.47;;;26.72;50.85
50268;BME280;36153;50.960;6.220;2022-08-26T11:49:11;100608.03;;;26.68;51.17
50268;BME280;36153;50.960;6.220;2022-08-26T11:52:19;100602.00;;;26.64;51.32
50268;BME280;36153;50.960;6.220;2022-08-26T11:55:21;100602.31;;;26.58;51.18
50268;BME280;36153;50.960;6.220;2022-08-26T11:58:23;100611.16;;;26.43;51.40
50268;BME280;36153;50.960;6.220;2022-08-26T12:01:32;100607.53;;;26.61;51.53
50268;BME280;36153;50.960;6.220;2022-08-26T12:04:36;100606.09;;;26.71;50.42
50268;BME280;36153;50.960;6.220;2022-08-26T12:07:37;100606.38;;;26.65;50.80
50268;BME280;36153;50.960;6.220;2022-08-26T12:10:38;100607.56;;;26.44;51.01
50268;BME280;36153;50.960;6.220;2022-08-26T12:13:39;100601.88;;;26.50;50.94
50268;BME280;36153;50.960;6.220;2022-08-26T12:16:41;100603.88;;;26.62;50.58
50268;BME280;36153;50.960;6.220;2022-08-26T12:19:42;100599.41;;;26.63;50.76
50268;BME280;36153;50.960;6.220;2022-08-26T12:22:43;100602.78;;;26.66;50.41
50268;BME280;36153;50.960;6.220;2022-08-26T12:25:43;100602.28;;;26.42;51.13
50268;BME280;36153;50.960;6.220;2022-08-26T12:28:49;100604.25;;;26.38;51.10
50268;BME280;36153;50.960;6.220;2022-08-26T12:32:05;100600.75;;;26.54;50.72
50268;BME280;36153;50.960;6.220;2022-08-26T12:35:09;100603.19;;;26.58;50.44
50268;BME280;36153;50.960;6.220;2022-08-26T12:38:10;100610.88;;;26.31;51.17
50268;BME280;36153;50.960;6.220;2022-08-26T12:41:11;100608.19;;;26.49;50.66
50268;BME280;36153;50.960;6.220;2022-08-26T12:45:00;100614.47;;;26.30;50.96
50268;BME280;36153;50.960;6.220;2022-08-26T12:48:05;100608.47;;;26.43;50.41
50268;BME280;36153;50.960;6.220;2022-08-26T12:51:27;100610.31;;;26.91;50.15
50268;BME280;36153;50.960;6.220;2022-08-26T12:54:28;100607.00;;;27.20;48.63
50268;BME280;36153;50.960;6.220;2022-08-26T12:57:48;100611.38;;;27.21;48.67
50268;BME280;36153;50.960;6.220;2022-08-26T13:00:57;100608.44;;;27.09;48.89
50268;BME280;36153;50.960;6.220;2022-08-26T13:03:57;100605.59;;;27.45;48.08
50268;BME280;36153;50.960;6.220;2022-08-26T13:10:35;100598.56;;;27.74;47.15
50268;BME280;36153;50.960;6.220;2022-08-26T13:13:37;100599.53;;;27.57;47.19
50268;BME280;36153;50.960;6.220;2022-08-26T13:16:38;100592.84;;;27.50;47.62
50268;BME280;36153;50.960;6.220;2022-08-26T13:19:40;100585.28;;;27.42;47.79
50268;BME280;36153;50.960;6.220;2022-08-26T13:22:40;100586.06;;;27.89;47.06
50268;BME280;36153;50.960;6.220;2022-08-26T13:25:41;100585.69;;;27.81;47.45
50268;BME280;36153;50.960;6.220;2022-08-26T13:28:43;100585.41;;;27.85;46.73
50268;BME280;36153;50.960;6.220;2022-08-26T13:31:44;100584.63;;;27.99;46.80
50268;BME280;36153;50.960;6.220;2022-08-26T13:34:47;100585.72;;;27.95;47.32
50268;BME280;36153;50.960;6.220;2022-08-26T13:37:48;100578.63;;;27.49;48.03
50268;BME280;36153;50.960;6.220;2022-08-26T13:40:49;100582.75;;;27.55;48.41
50268;BME280;36153;50.960;6.220;2022-08-26T13:43:49;100581.38;;;27.00;50.82
50268;BME280;36153;50.960;6.220;2022-08-26T13:46:49;100586.22;;;26.26;53.09
50268;BME280;36153;50.960;6.220;2022-08-26T13:49:50;100583.75;;;26.05;55.12
50268;BME280;36153;50.960;6.220;2022-08-26T13:52:50;100580.03;;;26.08;55.44
50268;BME280;36153;50.960;6.220;2022-08-26T13:55:51;100581.28;;;25.66;55.91
50268;BME280;36153;50.960;6.220;2022-08-26T13:58:51;100588.91;;;25.37;57.18
50268;BME280;36153;50.960;6.220;2022-08-26T14:01:52;100587.13;;;25.37;58.01
50268;BME280;36153;50.960;6.220;2022-08-26T14:04:52;100593.38;;;25.17;58.56
50268;BME280;36153;50.960;6.220;2022-08-26T14:07:54;100595.25;;;25.34;57.94
50268;BME280;36153;50.960;6.220;2022-08-26T14:10:56;100591.13;;;25.46;57.81
50268;BME280;36153;50.960;6.220;2022-08-26T14:13:56;100592.59;;;25.34;57.34
50268;BME280;36153;50.960;6.220;2022-08-26T14:16:56;100597.31;;;25.83;55.81
50268;BME280;36153;50.960;6.220;2022-08-26T14:19:57;100598.59;;;26.11;55.34
50268;BME280;36153;50.960;6.220;2022-08-26T14:22:58;100586.84;;;26.31;54.64
50268;BME280;36153;50.960;6.220;2022-08-26T14:25:59;100599.09;;;26.18;55.01
50268;BME280;36153;50.960;6.220;2022-08-26T14:29:00;100595.94;;;26.45;53.34
50268;BME280;36153;50.960;6.220;2022-08-26T14:32:06;100586.09;;;25.77;55.71
50268;BME280;36153;50.960;6.220;2022-08-26T14:35:15;100588.69;;;25.96;55.18
50268;BME280;36153;50.960;6.220;2022-08-26T14:38:16;100589.09;;;26.05;55.00
50268;BME280;36153;50.960;6.220;2022-08-26T14:41:17;100582.78;;;26.06;54.46
50268;BME280;36153;50.960;6.220;2022-08-26T14:44:18;100587.38;;;26.04;55.08
50268;BME280;36153;50.960;6.220;2022-08-26T14:47:18;100592.91;;;26.17;54.33
50268;BME280;36153;50.960;6.220;2022-08-26T14:50:20;100589.78;;;25.92;54.84
50268;BME280;36153;50.960;6.220;2022-08-26T14:53:24;100597.56;;;25.42;56.07
50268;BME280;36153;50.960;6.220;2022-08-26T14:56:51;100594.13;;;25.21;56.35
50268;BME280;36153;50.960;6.220;2022-08-26T14:59:55;100594.84;;;25.05;56.71
50268;BME280;36153;50.960;6.220;2022-08-26T15:02:56;100600.34;;;25.02;57.28
50268;BME280;36153;50.960;6.220;2022-08-26T15:05:57;100596.06;;;25.36;56.58
50268;BME280;36153;50.960;6.220;2022-08-26T15:08:59;100591.44;;;25.21;56.17
50268;BME280;36153;50.960;6.220;2022-08-26T15:11:59;100604.53;;;25.45;56.08
50268;BME280;36153;50.960;6.220;2022-08-26T15:14:59;100609.88;;;25.26;55.94
50268;BME280;36153;50.960;6.220;2022-08-26T15:18:00;100606.50;;;24.84;57.53
50268;BME280;36153;50.960;6.220;2022-08-26T15:21:02;100615.56;;;24.59;58.54
50268;BME280;36153;50.960;6.220;2022-08-26T15:24:03;100615.34;;;24.65;58.19
50268;BME280;36153;50.960;6.220;2022-08-26T15:27:04;100612.41;;;24.51;58.52
50268;BME280;36153;50.960;6.220;2022-08-26T15:30:06;100611.75;;;24.46;58.91
50268;BME280;36153;50.960;6.220;2022-08-26T15:33:07;100612.41;;;24.51;58.40
50268;BME280;36153;50.960;6.220;2022-08-26T15:36:07;100611.28;;;24.57;58.51
50268;BME280;36153;50.960;6.220;2022-08-26T15:39:08;100600.25;;;24.85;58.04
50268;BME280;36153;50.960;6.220;2022-08-26T15:42:08;100610.22;;;24.80;57.29
50268;BME280;36153;50.960;6.220;2022-08-26T15:45:10;100599.66;;;24.78;58.29
50268;BME280;36153;50.960;6.220;2022-08-26T15:48:10;100609.31;;;24.60;58.48
50268;BME280;36153;50.960;6.220;2022-08-26T15:54:22;100592.34;;;24.83;57.99
50268;BME280;36153;50.960;6.220;2022-08-26T15:57:22;100588.53;;;24.89;57.56
50268;BME280;36153;50.960;6.220;2022-08-26T16:00:23;100589.28;;;24.91;57.42
50268;BME280;36153;50.960;6.220;2022-08-26T16:03:24;100594.97;;;24.64;58.34
50268;BME280;36153;50.960;6.220;2022-08-26T16:06:30;100592.47;;;24.61;58.64
50268;BME280;36153;50.960;6.220;2022-08-26T16:09:31;100587.31;;;24.57;58.18
50268;BME280;36153;50.960;6.220;2022-08-26T16:12:31;100583.41;;;24.45;58.83
50268;BME280;36153;50.960;6.220;2022-08-26T16:15:32;100581.50;;;24.67;58.48
50268;BME280;36153;50.960;6.220;2022-08-26T16:18:32;100575.78;;;24.96;57.83
50268;BME280;36153;50.960;6.220;2022-08-26T16:21:33;100578.88;;;24.86;58.05
50268;BME280;36153;50.960;6.220;2022-08-26T16:24:35;100580.66;;;25.05;57.32
50268;BME280;36153;50.960;6.220;2022-08-26T16:27:36;100584.91;;;25.09;57.55
50268;BME280;36153;50.960;6.220;2022-08-26T16:30:36;100577.31;;;25.19;55.96
50268;BME280;36153;50.960;6.220;2022-08-26T16:33:37;100580.56;;;25.07;56.77
50268;BME280;36153;50.960;6.220;2022-08-26T16:36:38;100575.25;;;25.07;57.22